createdAt,value
2023-03-12T00:01:10.779Z,3.57
2023-03-12T00:03:40.385Z,4.73
2023-03-12T00:06:30.263Z,3.60
2023-03-12T00:08:58.272Z,3.27
2023-03-12T00:11:24.974Z,3.20
2023-03-12T00:13:52.896Z,3.43
2023-03-12T00:16:20.315Z,3.60
2023-03-12T00:18:52.300Z,3.87
2023-03-12T00:21:22.394Z,3.30
2023-03-12T00:23:49.708Z,3.60
2023-03-12T00:26:17.274Z,3.87
2023-03-12T00:28:44.155Z,3.60
2023-03-12T00:31:24.391Z,3.20
2023-03-12T00:33:55.014Z,3.30
2023-03-12T00:36:24.906Z,3.63
2023-03-12T00:38:52.595Z,4.00
2023-03-12T00:41:22.278Z,3.07
2023-03-12T00:43:50.225Z,3.53
2023-03-12T00:46:17.608Z,3.60
2023-03-12T00:48:44.819Z,3.43
2023-03-12T00:51:12.389Z,3.10
2023-03-12T00:53:39.555Z,3.10
2023-03-12T00:56:07.039Z,3.13
2023-03-12T00:58:33.908Z,3.63
2023-03-12T01:01:00.842Z,3.40
2023-03-12T01:03:27.892Z,3.10
2023-03-12T01:05:57.399Z,2.90
2023-03-12T01:08:24.525Z,2.90
2023-03-12T01:10:52.150Z,2.93
2023-03-12T01:13:19.036Z,2.97
2023-03-12T01:15:45.857Z,3.60
2023-03-12T01:18:12.629Z,3.73
2023-03-12T01:20:40.795Z,2.87
2023-03-12T01:23:07.880Z,2.93
2023-03-12T01:25:35.518Z,2.97
2023-03-12T01:28:02.456Z,2.70
2023-03-12T01:30:29.779Z,2.57
2023-03-12T01:32:56.613Z,2.70
2023-03-12T01:35:23.596Z,3.03
2023-03-12T01:37:50.461Z,2.93
2023-03-12T01:40:19.416Z,2.50
2023-03-12T01:42:56.836Z,2.30
2023-03-12T01:45:51.596Z,2.30
2023-03-12T01:48:19.612Z,2.73
2023-03-12T01:50:47.267Z,2.47
2023-03-12T01:53:14.105Z,2.10
2023-03-12T01:55:41.699Z,2.30
2023-03-12T01:58:09.600Z,2.13
2023-03-12T02:00:36.361Z,2.20
2023-03-12T02:03:06.762Z,2.20
2023-03-12T02:05:39.170Z,2.17
2023-03-12T02:08:05.931Z,1.90
2023-03-12T02:10:32.668Z,2.73
2023-03-12T02:12:59.333Z,1.80
2023-03-12T02:15:26.098Z,2.30
2023-03-12T02:17:54.184Z,1.87
2023-03-12T02:20:32.439Z,1.93
2023-03-12T02:23:09.308Z,1.87
2023-03-12T02:25:39.491Z,1.90
2023-03-12T02:28:10.108Z,1.63
2023-03-12T02:30:39.775Z,1.90
2023-03-12T02:33:08.731Z,1.97
2023-03-12T02:35:36.641Z,1.50
2023-03-12T02:38:04.231Z,1.70
2023-03-12T02:40:37.656Z,1.40
2023-03-12T02:43:06.679Z,1.43
2023-03-12T02:45:34.152Z,1.63
2023-03-12T02:48:02.160Z,1.50
2023-03-12T02:50:28.828Z,2.10
2023-03-12T02:52:55.701Z,2.10
2023-03-12T02:55:22.706Z,2.00
2023-03-12T02:57:49.434Z,2.03
2023-03-12T03:00:16.906Z,1.77
2023-03-12T03:02:48.227Z,1.97
2023-03-12T03:05:15.360Z,2.27
2023-03-12T03:07:42.211Z,2.20
2023-03-12T03:10:09.955Z,1.90
2023-03-12T03:12:37.486Z,1.90
2023-03-12T03:15:06.256Z,2.13
2023-03-12T03:17:33.337Z,2.20
2023-03-12T03:20:00.170Z,2.10
2023-03-12T03:22:27.124Z,2.47
2023-03-12T03:24:54.230Z,2.73
2023-03-12T03:27:21.010Z,1.80
2023-03-12T03:32:14.998Z,2.13
2023-03-12T03:34:42.023Z,2.00
2023-03-12T03:37:08.734Z,1.93
2023-03-12T03:39:36.043Z,1.90
2023-03-12T03:42:03.177Z,2.00
2023-03-12T03:44:32.700Z,1.90
2023-03-12T03:47:00.591Z,2.00
2023-03-12T03:49:27.287Z,1.83
2023-03-12T03:51:54.198Z,2.17
2023-03-12T03:54:31.236Z,1.80
2023-03-12T03:56:58.532Z,1.93
2023-03-12T03:59:25.246Z,1.73
2023-03-12T04:01:52.359Z,2.30
2023-03-12T04:04:19.175Z,2.10
2023-03-12T04:06:45.992Z,1.90
2023-03-12T04:09:13.725Z,3.50
2023-03-12T04:11:40.713Z,1.90
2023-03-12T04:14:08.813Z,2.63
2023-03-12T04:16:38.209Z,2.50
2023-03-12T04:19:05.278Z,1.90
2023-03-12T04:21:32.067Z,2.30
2023-03-12T04:23:58.919Z,2.33
2023-03-12T04:26:29.638Z,2.20
2023-03-12T04:28:57.336Z,1.67
2023-03-12T04:31:24.961Z,2.20
2023-03-12T04:33:51.663Z,2.17
2023-03-12T04:36:21.973Z,2.53
2023-03-12T04:38:50.418Z,2.20
2023-03-12T04:41:20.867Z,3.20
2023-03-12T04:43:52.391Z,2.83
2023-03-12T04:46:20.503Z,2.17
2023-03-12T04:48:47.286Z,1.97
2023-03-12T04:51:15.013Z,2.10
2023-03-12T04:53:42.178Z,2.13
2023-03-12T04:56:11.616Z,2.37
2023-03-12T04:58:39.179Z,2.20
2023-03-12T05:01:06.559Z,2.37
2023-03-12T05:03:33.409Z,2.17
2023-03-12T05:06:00.779Z,2.00
2023-03-12T05:08:27.654Z,2.57
2023-03-12T05:10:55.213Z,2.40
2023-03-12T05:13:22.842Z,2.03
2023-03-12T05:15:53.473Z,1.90
2023-03-12T05:18:21.548Z,2.40
2023-03-12T05:21:01.675Z,2.30
2023-03-12T05:23:29.227Z,2.10
2023-03-12T05:25:57.258Z,2.20
2023-03-12T05:28:27.986Z,2.17
2023-03-12T05:30:59.118Z,2.27
2023-03-12T05:33:27.645Z,2.50
2023-03-12T05:35:54.883Z,2.73
2023-03-12T05:38:22.065Z,2.67
2023-03-12T05:40:57.254Z,2.50
2023-03-12T05:43:24.354Z,2.53
2023-03-12T05:45:52.355Z,2.90
2023-03-12T05:48:19.409Z,2.70
2023-03-12T05:50:46.438Z,2.60
2023-03-12T05:53:13.272Z,2.90
2023-03-12T05:55:40.802Z,2.60
2023-03-12T05:58:08.430Z,3.37
2023-03-12T06:00:38.119Z,3.10
2023-03-12T06:03:06.681Z,2.93
2023-03-12T06:05:35.557Z,3.10
2023-03-12T06:08:03.763Z,3.30
2023-03-12T06:10:30.926Z,3.20
2023-03-12T06:12:58.114Z,3.10
2023-03-12T06:15:24.831Z,3.43
2023-03-12T06:17:51.640Z,3.33
2023-03-12T06:20:18.481Z,3.70
2023-03-12T06:22:45.177Z,3.97
2023-03-12T06:25:11.961Z,3.77
2023-03-12T06:27:38.782Z,3.63
2023-03-12T06:30:06.125Z,3.70
2023-03-12T06:32:33.059Z,4.20
2023-03-12T06:35:04.447Z,4.23
2023-03-12T06:37:31.493Z,3.87
2023-03-12T06:39:58.197Z,4.50
2023-03-12T06:42:26.554Z,5.57
2023-03-12T06:44:53.841Z,5.20
2023-03-12T06:47:20.687Z,4.87
2023-03-12T06:49:47.483Z,4.50
2023-03-12T06:52:14.222Z,5.37
2023-03-12T06:54:41.287Z,5.70
2023-03-12T06:57:07.959Z,5.20
2023-03-12T06:59:34.791Z,5.50
2023-03-12T07:02:01.963Z,5.53
2023-03-12T07:04:28.787Z,5.30
2023-03-12T07:06:55.535Z,5.27
2023-03-12T07:09:22.350Z,4.90
2023-03-12T07:11:49.913Z,5.40
2023-03-12T07:14:16.610Z,5.30
2023-03-12T07:16:43.603Z,6.10
2023-03-12T07:19:10.445Z,5.97
2023-03-12T07:21:37.474Z,5.60
2023-03-12T07:24:07.111Z,6.33
2023-03-12T07:26:35.405Z,5.40
2023-03-12T07:29:03.385Z,5.40
2023-03-12T07:31:30.186Z,5.70
2023-03-12T07:33:57.203Z,5.93
2023-03-12T07:36:24.108Z,5.93
2023-03-12T07:38:50.877Z,6.20
2023-03-12T07:41:17.572Z,6.07
2023-03-12T07:43:44.558Z,6.60
2023-03-12T07:46:11.401Z,5.60
2023-03-12T07:48:38.840Z,5.50
2023-03-12T07:51:06.051Z,6.20
2023-03-12T07:53:32.922Z,6.07
2023-03-12T07:55:59.769Z,6.37
2023-03-12T07:58:26.630Z,6.20
2023-03-12T08:00:55.840Z,5.87
2023-03-12T08:03:22.804Z,6.43
2023-03-12T08:05:59.999Z,6.60
2023-03-12T08:08:27.436Z,6.30
2023-03-12T08:10:54.282Z,6.60
2023-03-12T08:13:23.031Z,6.57
2023-03-12T08:15:51.528Z,7.63
2023-03-12T08:18:18.989Z,7.30
2023-03-12T08:20:46.724Z,8.27
2023-03-12T08:23:13.586Z,8.67
2023-03-12T08:25:40.341Z,9.67
2023-03-12T08:28:07.022Z,9.83
2023-03-12T08:30:34.498Z,10.43
2023-03-12T08:33:01.329Z,9.37
2023-03-12T08:35:28.677Z,10.43
2023-03-12T08:37:57.012Z,9.87
2023-03-12T08:40:24.532Z,10.57
2023-03-12T08:42:51.273Z,10.03
2023-03-12T08:45:18.194Z,10.47
2023-03-12T08:47:45.122Z,10.93
2023-03-12T08:50:12.881Z,10.87
2023-03-12T08:52:40.917Z,10.30
2023-03-12T08:55:08.039Z,9.97
2023-03-12T08:57:34.784Z,11.57
2023-03-12T09:00:01.944Z,9.93
2023-03-12T09:02:28.697Z,10.30
2023-03-12T09:04:55.542Z,9.63
2023-03-12T09:07:26.064Z,10.70
2023-03-12T09:09:55.093Z,10.67
2023-03-12T09:12:22.098Z,10.60
2023-03-12T09:15:02.854Z,8.77
2023-03-12T09:17:30.560Z,8.93
2023-03-12T09:19:57.234Z,10.27
2023-03-12T09:22:23.954Z,9.20
2023-03-12T09:24:50.983Z,8.97
2023-03-12T09:27:17.809Z,9.07
2023-03-12T09:29:57.231Z,9.27
2023-03-12T09:32:27.499Z,9.43
2023-03-12T09:34:54.632Z,6.40
2023-03-12T09:37:23.943Z,8.83
2023-03-12T09:39:51.578Z,6.83
2023-03-12T09:42:32.013Z,6.77
2023-03-12T09:45:00.566Z,6.67
2023-03-12T09:47:30.367Z,6.87
2023-03-12T09:50:17.344Z,6.60
2023-03-12T09:53:23.036Z,6.63
2023-03-12T09:55:51.370Z,8.70
2023-03-12T09:58:34.823Z,7.37
2023-03-12T10:01:10.510Z,7.67
2023-03-12T10:03:47.697Z,6.43
2023-03-12T10:06:23.303Z,6.83
2023-03-12T10:09:24.228Z,6.93
2023-03-12T10:12:10.532Z,6.03
2023-03-12T10:15:15.313Z,5.73
2023-03-12T10:17:48.186Z,6.30
2023-03-12T10:20:33.308Z,6.80
2023-03-12T10:23:20.134Z,4.93
2023-03-12T10:26:16.816Z,6.07
2023-03-12T10:29:03.649Z,6.70
2023-03-12T10:31:37.798Z,6.23
2023-03-12T10:34:31.174Z,7.13
2023-03-12T10:37:05.417Z,6.50
2023-03-12T10:39:35.237Z,7.50
2023-03-12T10:42:02.465Z,6.70
2023-03-12T10:44:29.519Z,6.40
2023-03-12T10:47:00.963Z,6.40
2023-03-12T10:49:31.318Z,6.67
2023-03-12T10:51:59.400Z,6.70
2023-03-12T10:54:31.158Z,6.30
2023-03-12T10:56:58.266Z,7.07
2023-03-12T10:59:30.969Z,5.70
2023-03-12T11:01:58.480Z,5.73
2023-03-12T11:04:28.809Z,4.97
2023-03-12T11:07:12.216Z,4.63
2023-03-12T11:09:39.003Z,5.93
2023-03-12T11:12:26.061Z,6.63
2023-03-12T11:14:53.327Z,4.80
2023-03-12T11:17:28.923Z,4.93
2023-03-12T11:19:56.022Z,6.27
2023-03-12T11:22:34.832Z,6.17
2023-03-12T11:25:06.792Z,5.37
2023-03-12T11:28:00.411Z,5.57
2023-03-12T11:30:35.876Z,5.77
2023-03-12T11:33:04.057Z,6.20
2023-03-12T11:36:05.752Z,6.07
2023-03-12T11:38:40.364Z,5.57
2023-03-12T11:41:30.715Z,5.20
2023-03-12T11:44:02.083Z,7.10
2023-03-12T11:46:51.349Z,6.77
2023-03-12T11:49:28.806Z,5.93
2023-03-12T11:52:04.572Z,6.33
2023-03-12T11:55:02.016Z,7.20
2023-03-12T11:57:40.731Z,5.27
2023-03-12T12:00:21.748Z,6.73
2023-03-12T12:03:02.682Z,6.30
2023-03-12T12:05:41.093Z,5.93
2023-03-12T12:08:24.614Z,4.73
2023-03-12T12:11:14.506Z,5.23
2023-03-12T12:13:44.920Z,5.07
2023-03-12T12:16:24.445Z,5.47
2023-03-12T12:19:30.872Z,6.03
2023-03-12T12:22:18.644Z,6.33
2023-03-12T12:25:10.743Z,5.17
2023-03-12T12:27:45.749Z,5.63
2023-03-12T12:31:03.407Z,5.50
2023-03-12T12:33:48.185Z,5.90
2023-03-12T12:36:15.060Z,5.50
2023-03-12T12:38:54.286Z,5.50
2023-03-12T12:41:25.858Z,5.10
2023-03-12T12:44:12.162Z,5.37
2023-03-12T12:46:45.292Z,7.67
2023-03-12T12:49:19.600Z,4.70
2023-03-12T12:52:03.311Z,5.40
2023-03-12T12:54:48.406Z,4.60
2023-03-12T12:57:21.511Z,4.37
2023-03-12T13:00:10.975Z,4.90
2023-03-12T13:02:40.319Z,5.90
2023-03-12T13:05:42.449Z,4.90
2023-03-12T13:08:34.716Z,5.23
2023-03-12T13:11:23.422Z,5.73
2023-03-12T13:14:02.707Z,5.43
2023-03-12T13:16:37.977Z,4.90
2023-03-12T13:19:13.935Z,4.70
2023-03-12T13:21:50.831Z,4.93
2023-03-12T13:24:33.766Z,4.93
2023-03-12T13:27:09.886Z,4.60
2023-03-12T13:29:40.317Z,5.43
2023-03-12T13:32:34.789Z,5.20
2023-03-12T13:35:25.826Z,6.17
2023-03-12T13:37:59.727Z,4.67
2023-03-12T13:40:29.845Z,4.27
2023-03-12T13:43:14.441Z,4.03
2023-03-12T13:45:47.649Z,4.40
2023-03-12T13:48:17.453Z,5.27
2023-03-12T13:50:52.344Z,4.80
2023-03-12T13:53:28.200Z,4.47
2023-03-12T13:56:27.350Z,4.37
2023-03-12T13:59:05.586Z,4.03
2023-03-12T14:01:41.162Z,4.77
2023-03-12T14:04:12.853Z,4.00
2023-03-12T14:07:07.715Z,4.90
2023-03-12T14:10:12.155Z,4.57
2023-03-12T14:12:46.266Z,4.37
2023-03-12T14:15:24.015Z,4.80
2023-03-12T14:17:59.576Z,5.07
2023-03-12T14:20:26.917Z,4.40
2023-03-12T14:23:05.845Z,5.27
2023-03-12T14:25:38.243Z,4.23
2023-03-12T14:28:14.540Z,4.40
2023-03-12T14:30:44.064Z,4.23
2023-03-12T14:33:14.197Z,3.93
2023-03-12T14:35:47.611Z,4.33
2023-03-12T14:38:22.027Z,4.97
2023-03-12T14:41:13.634Z,4.53
2023-03-12T14:43:42.626Z,4.23
2023-03-12T14:46:21.350Z,3.87
2023-03-12T14:48:50.229Z,4.30
2023-03-12T14:51:27.902Z,4.67
2023-03-12T14:53:55.266Z,4.17
2023-03-12T14:56:24.256Z,3.00
2023-03-12T14:58:52.007Z,4.50
2023-03-12T15:01:24.347Z,4.00
2023-03-12T15:03:54.991Z,5.00
2023-03-12T15:06:36.937Z,4.10
2023-03-12T15:09:06.380Z,4.13
2023-03-12T15:11:37.524Z,3.93
2023-03-12T15:14:09.856Z,4.27
2023-03-12T15:16:36.971Z,4.00
2023-03-12T15:19:04.226Z,3.87
2023-03-12T15:21:35.365Z,4.07
2023-03-12T15:24:03.072Z,3.70
2023-03-12T15:26:33.131Z,4.00
2023-03-12T15:29:15.700Z,3.93
2023-03-12T15:31:44.644Z,3.80
2023-03-12T15:34:13.496Z,4.13
2023-03-12T15:36:48.576Z,4.53
2023-03-12T15:39:26.522Z,3.90
2023-03-12T15:41:54.874Z,3.60
2023-03-12T15:44:31.014Z,4.50
2023-03-12T15:47:07.975Z,4.33
2023-03-12T15:49:36.427Z,4.07
2023-03-12T15:52:18.364Z,4.60
2023-03-12T15:55:19.100Z,3.97
2023-03-12T15:57:54.131Z,4.10
2023-03-12T16:00:42.756Z,3.67
2023-03-12T16:03:17.210Z,4.13
2023-03-12T16:05:44.586Z,5.30
2023-03-12T16:08:18.873Z,4.97
2023-03-12T16:10:47.076Z,3.50
2023-03-12T16:13:16.006Z,3.60
2023-03-12T16:15:43.505Z,4.40
2023-03-12T16:18:15.808Z,4.37
2023-03-12T16:20:43.747Z,4.40
2023-03-12T16:23:11.155Z,4.00
2023-03-12T16:25:38.427Z,3.80
2023-03-12T16:28:06.499Z,4.17
2023-03-12T16:30:35.885Z,4.20
2023-03-12T16:33:08.642Z,4.23
2023-03-12T16:35:36.697Z,3.40
2023-03-12T16:38:03.782Z,3.57
2023-03-12T16:40:36.259Z,4.60
2023-03-12T16:43:06.135Z,4.07
2023-03-12T16:45:37.073Z,4.30
2023-03-12T16:48:05.731Z,4.10
2023-03-12T16:50:32.708Z,4.53
2023-03-12T16:53:00.694Z,4.30
2023-03-12T16:55:29.408Z,4.00
2023-03-12T16:58:01.571Z,4.50
2023-03-12T17:00:30.550Z,3.87
2023-03-12T17:02:58.149Z,4.40
2023-03-12T17:05:26.520Z,4.10
2023-03-12T17:07:54.703Z,4.30
2023-03-12T17:10:22.388Z,4.60
2023-03-12T17:12:49.970Z,4.43
2023-03-12T17:15:28.407Z,4.13
2023-03-12T17:17:55.750Z,4.57
2023-03-12T17:20:24.711Z,5.87
2023-03-12T17:22:51.398Z,4.77
2023-03-12T17:25:24.917Z,4.60
2023-03-12T17:27:52.236Z,5.57
2023-03-12T17:30:20.898Z,4.17
2023-03-12T17:32:48.006Z,3.97
2023-03-12T17:35:14.796Z,4.80
2023-03-12T17:37:41.591Z,4.60
2023-03-12T17:40:10.008Z,5.30
2023-03-12T17:42:37.603Z,4.27
2023-03-12T17:45:06.460Z,5.70
2023-03-12T17:47:33.264Z,3.83
2023-03-12T17:50:00.093Z,5.40
2023-03-12T17:52:26.956Z,4.10
2023-03-12T17:54:54.580Z,4.47
2023-03-12T17:57:21.302Z,4.17
2023-03-12T17:59:48.121Z,4.00
2023-03-12T18:02:14.920Z,4.47
2023-03-12T18:04:41.613Z,5.27
2023-03-12T18:07:08.607Z,5.13
2023-03-12T18:09:35.684Z,4.57
2023-03-12T18:12:02.547Z,6.10
2023-03-12T18:14:29.340Z,3.67
2023-03-12T18:16:56.100Z,4.00
2023-03-12T18:19:23.632Z,4.33
2023-03-12T18:21:50.396Z,4.20
2023-03-12T18:24:17.063Z,4.47
2023-03-12T18:26:45.318Z,4.37
2023-03-12T18:29:12.498Z,4.67
2023-03-12T18:31:39.556Z,5.10
2023-03-12T18:34:06.335Z,4.77
2023-03-12T18:36:33.079Z,4.67
2023-03-12T18:39:04.350Z,4.57
2023-03-12T18:41:32.868Z,4.33
2023-03-12T18:44:00.151Z,5.10
2023-03-12T18:46:27.374Z,4.20
2023-03-12T18:48:54.474Z,3.90
2023-03-12T18:51:21.291Z,5.03
2023-03-12T18:53:47.976Z,4.30
2023-03-12T18:56:14.823Z,4.70
2023-03-12T18:58:41.593Z,4.00
2023-03-12T19:01:08.389Z,5.03
2023-03-12T19:03:36.512Z,3.93
2023-03-12T19:06:08.843Z,4.20
2023-03-12T19:08:37.400Z,4.40
2023-03-12T19:11:05.671Z,4.20
2023-03-12T19:13:32.584Z,4.27
2023-03-12T19:16:05.417Z,4.53
2023-03-12T19:18:32.593Z,4.43
2023-03-12T19:20:59.361Z,4.00
2023-03-12T19:23:26.143Z,3.93
2023-03-12T19:25:52.891Z,4.57
2023-03-12T19:28:19.801Z,3.80
2023-03-12T19:30:46.736Z,5.23
2023-03-12T19:33:14.288Z,4.20
2023-03-12T19:35:41.937Z,4.17
2023-03-12T19:38:08.956Z,4.83
2023-03-12T19:40:35.832Z,4.93
2023-03-12T19:43:02.860Z,3.47
2023-03-12T19:45:29.758Z,4.00
2023-03-12T19:47:56.596Z,3.83
2023-03-12T19:50:24.190Z,4.40
2023-03-12T19:52:51.225Z,4.20
2023-03-12T19:55:18.001Z,3.63
2023-03-12T19:57:45.050Z,3.67
2023-03-12T20:00:12.460Z,4.10
2023-03-12T20:02:40.551Z,3.70
2023-03-12T20:05:08.802Z,4.43
2023-03-12T20:07:36.439Z,4.20
2023-03-12T20:10:03.558Z,3.90
2023-03-12T20:12:30.450Z,4.33
2023-03-12T20:14:57.263Z,3.57
2023-03-12T20:17:24.712Z,4.00
2023-03-12T20:19:51.709Z,3.57
2023-03-12T20:22:18.522Z,3.73
2023-03-12T20:24:45.245Z,4.17
2023-03-12T20:27:11.979Z,3.50
2023-03-12T20:29:38.825Z,4.77
2023-03-12T20:32:05.815Z,3.83
2023-03-12T20:34:32.592Z,4.63
2023-03-12T20:36:59.341Z,4.13
2023-03-12T20:39:26.291Z,4.20
2023-03-12T20:41:53.112Z,4.13
2023-03-12T20:44:19.864Z,3.17
2023-03-12T20:46:47.579Z,3.67
2023-03-12T20:49:14.969Z,3.60
2023-03-12T20:51:42.871Z,4.20
2023-03-12T20:54:09.645Z,4.60
2023-03-12T20:56:36.677Z,3.60
2023-03-12T20:59:03.465Z,3.60
2023-03-12T21:01:30.286Z,4.00
2023-03-12T21:03:57.899Z,3.77
2023-03-12T21:06:24.840Z,3.70
2023-03-12T21:08:56.320Z,3.37
2023-03-12T21:11:23.259Z,3.23
2023-03-12T21:13:50.110Z,3.40
2023-03-12T21:16:17.429Z,3.90
2023-03-12T21:18:44.272Z,3.80
2023-03-12T21:21:11.486Z,2.90
2023-03-12T21:23:38.844Z,3.70
2023-03-12T21:26:09.414Z,2.97
2023-03-12T21:28:36.507Z,3.17
2023-03-12T21:31:11.769Z,3.70
2023-03-12T21:33:39.066Z,2.73
2023-03-12T21:36:07.734Z,2.40
2023-03-12T21:38:35.816Z,3.53
2023-03-12T21:41:14.073Z,2.93
2023-03-12T21:43:42.101Z,3.10
2023-03-12T21:46:11.732Z,2.93
2023-03-12T21:48:39.370Z,2.60
2023-03-12T21:51:11.352Z,3.23
2023-03-12T21:53:39.079Z,2.77
2023-03-12T21:56:07.532Z,2.90
2023-03-12T21:58:35.574Z,3.30
2023-03-12T22:01:07.210Z,4.27
2023-03-12T22:03:34.672Z,2.97
2023-03-12T22:06:01.781Z,3.20
2023-03-12T22:08:42.989Z,3.30
2023-03-12T22:11:28.516Z,3.23
2023-03-12T22:14:20.686Z,3.10
2023-03-12T22:16:47.627Z,2.90
2023-03-12T22:19:14.458Z,3.17
2023-03-12T22:21:42.811Z,2.80
2023-03-12T22:24:10.618Z,3.03
2023-03-12T22:26:38.541Z,2.70
2023-03-12T22:29:07.151Z,3.10
2023-03-12T22:31:34.094Z,2.93
2023-03-12T22:34:05.700Z,3.70
2023-03-12T22:36:49.884Z,3.00
2023-03-12T22:39:34.724Z,2.80
2023-03-12T22:42:25.156Z,3.17
2023-03-12T22:45:08.532Z,3.40
2023-03-12T22:47:35.720Z,2.87
2023-03-12T22:50:02.554Z,3.57
2023-03-12T22:52:29.428Z,3.43
2023-03-12T22:54:56.215Z,4.03
2023-03-12T22:57:23.731Z,3.53
2023-03-12T22:59:50.831Z,3.10
2023-03-12T23:02:24.429Z,2.90
2023-03-12T23:04:51.437Z,2.97
2023-03-12T23:07:29.634Z,3.67
2023-03-12T23:10:12.680Z,3.47
2023-03-12T23:13:02.313Z,3.27
2023-03-12T23:15:41.125Z,3.07
2023-03-12T23:18:11.887Z,3.63
2023-03-12T23:20:39.339Z,2.77
2023-03-12T23:23:06.252Z,3.37
2023-03-12T23:25:33.641Z,3.53
2023-03-12T23:28:02.788Z,3.17
2023-03-12T23:30:29.998Z,3.03
2023-03-12T23:32:57.097Z,3.17
2023-03-12T23:35:24.088Z,2.90
2023-03-12T23:37:56.719Z,3.87
2023-03-12T23:40:23.580Z,2.63
2023-03-12T23:42:50.675Z,3.13
2023-03-12T23:45:17.502Z,3.23
2023-03-12T23:47:47.212Z,3.27
2023-03-12T23:50:14.232Z,3.57
2023-03-12T23:52:41.225Z,3.20
2023-03-12T23:55:08.482Z,3.07
2023-03-12T23:57:35.282Z,4.00
